Terminal Aerodrome Forecast
Issued by NWS Nashville, TN

Home | Current Version | Previous Version | Text Only | Print | Product List | Glossary On
Versions: 1 2 3 4 5 6 7 8 9 10 11 12 13 14 15 16 17 18 19 20 21 22 23 24 25 26 27 28 29 30
000
FTUS44 KOHX 231800 AAB
TAFCSV
TAF AMD
KCSV 231830Z 2319/2418 29004KT P6SM VCTS SCT025CB BKN045
      TEMPO 2319/2321 VRB10G20KT 1/2SM +TSRA BKN025CB OVC045
     FM240000 30003KT P6SM BKN060
     FM240300 31004KT 5SM BR VCSH SCT020 BKN030=

USA.gov is the U.S. government's official web portal to all federal, state and local government web resources and services.